sensor_id;sensor_type;location;lat;lon;timestamp;P1;durP1;ratioP1;P2;durP2;ratioP2
20179;SDS011;10249;48.900;9.090;2022-09-24T00:00:01;6.90;;;6.70;;
20179;SDS011;10249;48.900;9.090;2022-09-24T00:02:28;7.13;;;6.93;;
20179;SDS011;10249;48.900;9.090;2022-09-24T00:04:55;6.80;;;6.60;;
20179;SDS011;10249;48.900;9.090;2022-09-24T00:07:22;6.60;;;6.40;;
20179;SDS011;10249;48.900;9.090;2022-09-24T00:09:49;6.70;;;6.50;;
20179;SDS011;10249;48.900;9.090;2022-09-24T00:12:18;7.20;;;7.00;;
20179;SDS011;10249;48.900;9.090;2022-09-24T00:14:45;6.80;;;6.60;;
20179;SDS011;10249;48.900;9.090;2022-09-24T00:17:12;6.90;;;6.70;;
20179;SDS011;10249;48.900;9.090;2022-09-24T00:19:40;7.07;;;6.87;;
20179;SDS011;10249;48.900;9.090;2022-09-24T00:22:08;7.17;;;6.97;;
20179;SDS011;10249;48.900;9.090;2022-09-24T00:24:35;7.30;;;7.10;;
20179;SDS011;10249;48.900;9.090;2022-09-24T00:27:20;7.33;;;7.13;;
20179;SDS011;10249;48.900;9.090;2022-09-24T00:29:47;7.27;;;7.07;;
20179;SDS011;10249;48.900;9.090;2022-09-24T00:32:14;7.20;;;7.00;;
20179;SDS011;10249;48.900;9.090;2022-09-24T00:34:40;7.03;;;6.83;;
20179;SDS011;10249;48.900;9.090;2022-09-24T00:37:07;7.03;;;6.83;;
20179;SDS011;10249;48.900;9.090;2022-09-24T00:39:35;6.90;;;6.70;;
20179;SDS011;10249;48.900;9.090;2022-09-24T00:42:02;7.20;;;7.00;;
20179;SDS011;10249;48.900;9.090;2022-09-24T00:44:45;6.70;;;6.50;;
20179;SDS011;10249;48.900;9.090;2022-09-24T00:47:19;6.90;;;6.70;;
20179;SDS011;10249;48.900;9.090;2022-09-24T00:49:55;6.60;;;6.40;;
20179;SDS011;10249;48.900;9.090;2022-09-24T00:52:30;7.00;;;6.80;;
20179;SDS011;10249;48.900;9.090;2022-09-24T00:54:57;6.80;;;6.60;;
20179;SDS011;10249;48.900;9.090;2022-09-24T00:57:24;6.50;;;6.30;;
20179;SDS011;10249;48.900;9.090;2022-09-24T00:59:53;6.20;;;6.00;;
20179;SDS011;10249;48.900;9.090;2022-09-24T01:02:21;5.93;;;5.73;;
20179;SDS011;10249;48.900;9.090;2022-09-24T01:04:48;6.10;;;5.90;;
20179;SDS011;10249;48.900;9.090;2022-09-24T01:07:15;6.10;;;5.90;;
20179;SDS011;10249;48.900;9.090;2022-09-24T01:09:41;6.50;;;6.30;;
20179;SDS011;10249;48.900;9.090;2022-09-24T01:12:10;6.40;;;6.20;;
20179;SDS011;10249;48.900;9.090;2022-09-24T01:14:45;6.80;;;6.60;;
20179;SDS011;10249;48.900;9.090;2022-09-24T01:17:28;6.63;;;6.43;;
20179;SDS011;10249;48.900;9.090;2022-09-24T01:20:08;6.50;;;6.30;;
20179;SDS011;10249;48.900;9.090;2022-09-24T01:23:06;6.50;;;6.30;;
20179;SDS011;10249;48.900;9.090;2022-09-24T01:25:43;6.40;;;6.20;;
20179;SDS011;10249;48.900;9.090;2022-09-24T01:28:28;6.40;;;6.20;;
20179;SDS011;10249;48.900;9.090;2022-09-24T01:31:04;6.50;;;6.30;;
20179;SDS011;10249;48.900;9.090;2022-09-24T01:33:37;6.33;;;6.13;;
20179;SDS011;10249;48.900;9.090;2022-09-24T01:36:05;6.53;;;6.33;;
20179;SDS011;10249;48.900;9.090;2022-09-24T01:38:34;6.60;;;6.40;;
20179;SDS011;10249;48.900;9.090;2022-09-24T01:41:04;6.67;;;6.47;;
20179;SDS011;10249;48.900;9.090;2022-09-24T01:43:34;6.60;;;6.40;;
20179;SDS011;10249;48.900;9.090;2022-09-24T01:46:04;6.60;;;6.40;;
20179;SDS011;10249;48.900;9.090;2022-09-24T01:48:32;6.40;;;6.20;;
20179;SDS011;10249;48.900;9.090;2022-09-24T01:51:02;6.03;;;5.83;;
20179;SDS011;10249;48.900;9.090;2022-09-24T01:53:36;6.47;;;6.27;;
20179;SDS011;10249;48.900;9.090;2022-09-24T01:56:07;5.60;;;5.40;;
20179;SDS011;10249;48.900;9.090;2022-09-24T01:58:39;5.70;;;5.50;;
20179;SDS011;10249;48.900;9.090;2022-09-24T02:01:12;5.50;;;5.30;;
20179;SDS011;10249;48.900;9.090;2022-09-24T02:03:44;5.70;;;5.50;;
20179;SDS011;10249;48.900;9.090;2022-09-24T02:06:16;5.73;;;5.53;;
20179;SDS011;10249;48.900;9.090;2022-09-24T02:08:48;5.80;;;5.60;;
20179;SDS011;10249;48.900;9.090;2022-09-24T02:11:15;5.80;;;5.60;;
20179;SDS011;10249;48.900;9.090;2022-09-24T02:13:46;5.90;;;5.70;;
20179;SDS011;10249;48.900;9.090;2022-09-24T02:16:18;5.93;;;5.73;;
20179;SDS011;10249;48.900;9.090;2022-09-24T02:18:48;6.03;;;5.83;;
20179;SDS011;10249;48.900;9.090;2022-09-24T02:21:20;6.00;;;5.80;;
20179;SDS011;10249;48.900;9.090;2022-09-24T02:23:50;6.20;;;6.00;;
20179;SDS011;10249;48.900;9.090;2022-09-24T02:26:20;6.17;;;5.97;;
20179;SDS011;10249;48.900;9.090;2022-09-24T02:28:47;6.30;;;6.10;;
20179;SDS011;10249;48.900;9.090;2022-09-24T02:31:15;6.20;;;6.00;;
20179;SDS011;10249;48.900;9.090;2022-09-24T02:33:47;6.50;;;6.30;;
20179;SDS011;10249;48.900;9.090;2022-09-24T02:36:34;6.60;;;6.40;;
20179;SDS011;10249;48.900;9.090;2022-09-24T02:39:03;9.20;;;8.90;;
20179;SDS011;10249;48.900;9.090;2022-09-24T02:41:30;6.90;;;6.70;;
20179;SDS011;10249;48.900;9.090;2022-09-24T02:43:57;6.67;;;6.47;;
20179;SDS011;10249;48.900;9.090;2022-09-24T02:46:25;7.17;;;6.97;;
20179;SDS011;10249;48.900;9.090;2022-09-24T02:48:52;6.77;;;6.57;;
20179;SDS011;10249;48.900;9.090;2022-09-24T02:51:18;7.77;;;7.43;;
20179;SDS011;10249;48.900;9.090;2022-09-24T02:53:46;6.60;;;6.40;;
20179;SDS011;10249;48.900;9.090;2022-09-24T02:56:13;6.70;;;6.50;;
20179;SDS011;10249;48.900;9.090;2022-09-24T02:58:39;6.30;;;6.10;;
20179;SDS011;10249;48.900;9.090;2022-09-24T03:01:07;5.50;;;5.30;;
20179;SDS011;10249;48.900;9.090;2022-09-24T03:03:35;5.70;;;5.50;;
20179;SDS011;10249;48.900;9.090;2022-09-24T03:06:02;5.60;;;5.40;;
20179;SDS011;10249;48.900;9.090;2022-09-24T03:08:29;5.60;;;5.40;;
20179;SDS011;10249;48.900;9.090;2022-09-24T03:10:57;5.50;;;5.30;;
20179;SDS011;10249;48.900;9.090;2022-09-24T03:13:24;5.77;;;5.57;;
20179;SDS011;10249;48.900;9.090;2022-09-24T03:15:51;6.00;;;5.80;;
20179;SDS011;10249;48.900;9.090;2022-09-24T03:18:18;5.80;;;5.60;;
20179;SDS011;10249;48.900;9.090;2022-09-24T03:20:54;5.93;;;5.73;;
20179;SDS011;10249;48.900;9.090;2022-09-24T03:23:21;6.17;;;5.97;;
20179;SDS011;10249;48.900;9.090;2022-09-24T03:25:48;6.10;;;5.90;;
20179;SDS011;10249;48.900;9.090;2022-09-24T03:28:15;6.10;;;5.90;;
20179;SDS011;10249;48.900;9.090;2022-09-24T03:30:42;5.80;;;5.60;;
20179;SDS011;10249;48.900;9.090;2022-09-24T03:33:27;6.37;;;6.17;;
20179;SDS011;10249;48.900;9.090;2022-09-24T03:35:57;10.23;;;9.90;;
20179;SDS011;10249;48.900;9.090;2022-09-24T03:38:25;6.30;;;6.10;;
20179;SDS011;10249;48.900;9.090;2022-09-24T03:40:51;6.57;;;6.37;;
20179;SDS011;10249;48.900;9.090;2022-09-24T03:43:18;6.40;;;6.20;;
20179;SDS011;10249;48.900;9.090;2022-09-24T03:45:45;6.63;;;6.43;;
20179;SDS011;10249;48.900;9.090;2022-09-24T03:48:13;6.70;;;6.50;;
20179;SDS011;10249;48.900;9.090;2022-09-24T03:50:40;6.53;;;6.33;;
20179;SDS011;10249;48.900;9.090;2022-09-24T03:53:08;6.70;;;6.50;;
20179;SDS011;10249;48.900;9.090;2022-09-24T03:55:40;6.70;;;6.50;;
20179;SDS011;10249;48.900;9.090;2022-09-24T03:58:07;6.77;;;6.57;;
20179;SDS011;10249;48.900;9.090;2022-09-24T04:00:34;6.90;;;6.70;;
20179;SDS011;10249;48.900;9.090;2022-09-24T04:03:01;7.20;;;7.00;;
20179;SDS011;10249;48.900;9.090;2022-09-24T04:05:28;6.10;;;5.90;;
20179;SDS011;10249;48.900;9.090;2022-09-24T04:07:54;5.77;;;5.57;;
20179;SDS011;10249;48.900;9.090;2022-09-24T04:10:22;5.90;;;5.70;;
20179;SDS011;10249;48.900;9.090;2022-09-24T04:12:49;5.73;;;5.53;;
20179;SDS011;10249;48.900;9.090;2022-09-24T04:15:16;6.10;;;5.90;;
20179;SDS011;10249;48.900;9.090;2022-09-24T04:17:47;5.63;;;5.43;;
20179;SDS011;10249;48.900;9.090;2022-09-24T04:20:15;5.90;;;5.70;;
20179;SDS011;10249;48.900;9.090;2022-09-24T04:22:41;5.80;;;5.60;;
20179;SDS011;10249;48.900;9.090;2022-09-24T04:25:08;6.43;;;6.23;;
20179;SDS011;10249;48.900;9.090;2022-09-24T04:27:36;6.00;;;5.80;;
20179;SDS011;10249;48.900;9.090;2022-09-24T04:30:03;6.00;;;5.80;;
20179;SDS011;10249;48.900;9.090;2022-09-24T04:32:30;5.90;;;5.70;;
20179;SDS011;10249;48.900;9.090;2022-09-24T04:34:57;5.93;;;5.73;;
20179;SDS011;10249;48.900;9.090;2022-09-24T04:37:24;5.90;;;5.70;;
20179;SDS011;10249;48.900;9.090;2022-09-24T04:39:50;6.20;;;6.00;;
20179;SDS011;10249;48.900;9.090;2022-09-24T04:42:17;6.17;;;5.97;;
20179;SDS011;10249;48.900;9.090;2022-09-24T04:44:45;6.00;;;5.80;;
20179;SDS011;10249;48.900;9.090;2022-09-24T04:47:12;6.10;;;5.90;;
20179;SDS011;10249;48.900;9.090;2022-09-24T04:49:39;6.10;;;5.90;;
20179;SDS011;10249;48.900;9.090;2022-09-24T04:52:07;6.47;;;6.27;;
20179;SDS011;10249;48.900;9.090;2022-09-24T04:54:34;6.17;;;5.97;;
20179;SDS011;10249;48.900;9.090;2022-09-24T04:57:00;6.23;;;6.03;;
20179;SDS011;10249;48.900;9.090;2022-09-24T04:59:27;6.10;;;5.90;;
20179;SDS011;10249;48.900;9.090;2022-09-24T05:01:55;6.10;;;5.90;;
20179;SDS011;10249;48.900;9.090;2022-09-24T05:04:22;6.37;;;6.17;;
20179;SDS011;10249;48.900;9.090;2022-09-24T05:06:48;6.70;;;6.50;;
20179;SDS011;10249;48.900;9.090;2022-09-24T05:09:15;6.40;;;6.20;;
20179;SDS011;10249;48.900;9.090;2022-09-24T05:11:42;6.60;;;6.40;;
20179;SDS011;10249;48.900;9.090;2022-09-24T05:14:08;6.60;;;6.40;;
20179;SDS011;10249;48.900;9.090;2022-09-24T05:16:35;6.33;;;6.13;;
20179;SDS011;10249;48.900;9.090;2022-09-24T05:19:03;6.20;;;6.00;;
20179;SDS011;10249;48.900;9.090;2022-09-24T05:21:30;6.60;;;6.40;;
20179;SDS011;10249;48.900;9.090;2022-09-24T05:23:57;5.80;;;5.60;;
20179;SDS011;10249;48.900;9.090;2022-09-24T05:26:24;5.60;;;5.40;;
20179;SDS011;10249;48.900;9.090;2022-09-24T05:29:08;5.60;;;5.40;;
20179;SDS011;10249;48.900;9.090;2022-09-24T05:31:34;5.87;;;5.67;;
20179;SDS011;10249;48.900;9.090;2022-09-24T05:34:01;5.50;;;5.30;;
20179;SDS011;10249;48.900;9.090;2022-09-24T05:36:29;5.20;;;5.10;;
20179;SDS011;10249;48.900;9.090;2022-09-24T05:38:56;5.70;;;5.50;;
20179;SDS011;10249;48.900;9.090;2022-09-24T05:41:23;5.13;;;5.03;;
20179;SDS011;10249;48.900;9.090;2022-09-24T05:43:49;5.10;;;5.00;;
20179;SDS011;10249;48.900;9.090;2022-09-24T05:46:16;5.00;;;4.90;;
20179;SDS011;10249;48.900;9.090;2022-09-24T05:48:43;5.10;;;5.00;;
20179;SDS011;10249;48.900;9.090;2022-09-24T05:51:11;5.00;;;4.90;;
20179;SDS011;10249;48.900;9.090;2022-09-24T05:53:37;4.83;;;4.73;;
20179;SDS011;10249;48.900;9.090;2022-09-24T05:56:04;5.30;;;5.10;;
20179;SDS011;10249;48.900;9.090;2022-09-24T05:58:31;5.10;;;5.00;;
20179;SDS011;10249;48.900;9.090;2022-09-24T06:00:58;5.10;;;5.00;;
20179;SDS011;10249;48.900;9.090;2022-09-24T06:03:25;5.93;;;5.72;;
20179;SDS011;10249;48.900;9.090;2022-09-24T06:05:53;8.17;;;7.77;;
20179;SDS011;10249;48.900;9.090;2022-09-24T06:08:24;5.65;;;5.45;;
20179;SDS011;10249;48.900;9.090;2022-09-24T06:10:51;5.30;;;5.10;;
20179;SDS011;10249;48.900;9.090;2022-09-24T06:13:18;5.07;;;4.97;;
20179;SDS011;10249;48.900;9.090;2022-09-24T06:15:45;5.37;;;5.17;;
20179;SDS011;10249;48.900;9.090;2022-09-24T06:18:12;4.83;;;4.73;;
20179;SDS011;10249;48.900;9.090;2022-09-24T06:20:39;5.00;;;4.90;;
20179;SDS011;10249;48.900;9.090;2022-09-24T06:23:06;5.00;;;4.90;;
20179;SDS011;10249;48.900;9.090;2022-09-24T06:25:34;5.20;;;5.10;;
20179;SDS011;10249;48.900;9.090;2022-09-24T06:28:01;6.00;;;5.80;;
20179;SDS011;10249;48.900;9.090;2022-09-24T06:30:31;6.37;;;6.17;;
20179;SDS011;10249;48.900;9.090;2022-09-24T06:33:02;5.40;;;5.20;;
20179;SDS011;10249;48.900;9.090;2022-09-24T06:35:29;7.70;;;6.90;;
20179;SDS011;10249;48.900;9.090;2022-09-24T06:37:56;5.20;;;5.03;;
20179;SDS011;10249;48.900;9.090;2022-09-24T06:40:23;4.73;;;4.63;;
20179;SDS011;10249;48.900;9.090;2022-09-24T06:42:51;5.10;;;4.80;;
20179;SDS011;10249;48.900;9.090;2022-09-24T06:45:19;4.93;;;4.83;;
20179;SDS011;10249;48.900;9.090;2022-09-24T06:47:50;6.20;;;5.90;;
20179;SDS011;10249;48.900;9.090;2022-09-24T06:50:18;8.93;;;8.13;;
20179;SDS011;10249;48.900;9.090;2022-09-24T06:52:45;5.23;;;5.03;;
20179;SDS011;10249;48.900;9.090;2022-09-24T06:55:12;5.80;;;5.50;;
20179;SDS011;10249;48.900;9.090;2022-09-24T06:57:38;4.53;;;4.43;;
20179;SDS011;10249;48.900;9.090;2022-09-24T07:00:08;5.47;;;5.27;;
20179;SDS011;10249;48.900;9.090;2022-09-24T07:02:36;4.10;;;4.00;;
20179;SDS011;10249;48.900;9.090;2022-09-24T07:05:03;5.47;;;5.27;;
20179;SDS011;10249;48.900;9.090;2022-09-24T07:07:30;4.10;;;4.00;;
20179;SDS011;10249;48.900;9.090;2022-09-24T07:09:58;4.33;;;4.23;;
20179;SDS011;10249;48.900;9.090;2022-09-24T07:12:27;4.30;;;4.20;;
20179;SDS011;10249;48.900;9.090;2022-09-24T07:14:54;6.73;;;6.33;;
20179;SDS011;10249;48.900;9.090;2022-09-24T07:17:22;4.20;;;4.10;;
20179;SDS011;10249;48.900;9.090;2022-09-24T07:19:49;4.90;;;4.80;;
20179;SDS011;10249;48.900;9.090;2022-09-24T07:22:16;6.97;;;6.63;;
20179;SDS011;10249;48.900;9.090;2022-09-24T07:24:43;5.07;;;4.97;;
20179;SDS011;10249;48.900;9.090;2022-09-24T07:27:11;5.30;;;5.10;;
20179;SDS011;10249;48.900;9.090;2022-09-24T07:29:38;5.23;;;5.10;;
20179;SDS011;10249;48.900;9.090;2022-09-24T07:32:04;7.10;;;6.70;;
20179;SDS011;10249;48.900;9.090;2022-09-24T07:34:32;7.00;;;6.70;;
20179;SDS011;10249;48.900;9.090;2022-09-24T07:36:59;5.33;;;5.13;;
20179;SDS011;10249;48.900;9.090;2022-09-24T07:39:26;7.57;;;7.20;;
20179;SDS011;10249;48.900;9.090;2022-09-24T07:41:53;5.87;;;5.67;;
20179;SDS011;10249;48.900;9.090;2022-09-24T07:44:20;6.20;;;6.00;;
20179;SDS011;10249;48.900;9.090;2022-09-24T07:46:48;6.40;;;6.20;;
20179;SDS011;10249;48.900;9.090;2022-09-24T07:49:15;6.30;;;6.10;;
20179;SDS011;10249;48.900;9.090;2022-09-24T07:51:43;6.87;;;6.67;;
20179;SDS011;10249;48.900;9.090;2022-09-24T07:54:10;7.57;;;7.37;;
20179;SDS011;10249;48.900;9.090;2022-09-24T07:56:37;7.40;;;7.20;;
20179;SDS011;10249;48.900;9.090;2022-09-24T07:59:04;7.43;;;7.23;;
20179;SDS011;10249;48.900;9.090;2022-09-24T08:01:31;8.07;;;7.87;;
20179;SDS011;10249;48.900;9.090;2022-09-24T08:03:59;8.20;;;7.90;;
20179;SDS011;10249;48.900;9.090;2022-09-24T08:06:26;8.50;;;8.20;;
20179;SDS011;10249;48.900;9.090;2022-09-24T08:08:54;9.10;;;8.80;;
20179;SDS011;10249;48.900;9.090;2022-09-24T08:11:21;8.73;;;8.43;;
20179;SDS011;10249;48.900;9.090;2022-09-24T08:13:47;9.13;;;8.83;;
20179;SDS011;10249;48.900;9.090;2022-09-24T08:16:15;9.73;;;9.33;;
20179;SDS011;10249;48.900;9.090;2022-09-24T08:18:43;7.80;;;7.60;;
20179;SDS011;10249;48.900;9.090;2022-09-24T08:21:10;7.43;;;7.23;;
20179;SDS011;10249;48.900;9.090;2022-09-24T08:23:39;7.40;;;7.20;;
20179;SDS011;10249;48.900;9.090;2022-09-24T08:26:08;7.30;;;7.10;;
20179;SDS011;10249;48.900;9.090;2022-09-24T08:28:35;6.87;;;6.67;;
20179;SDS011;10249;48.900;9.090;2022-09-24T08:31:05;7.00;;;6.80;;
20179;SDS011;10249;48.900;9.090;2022-09-24T08:33:33;7.70;;;7.50;;
20179;SDS011;10249;48.900;9.090;2022-09-24T08:36:00;7.60;;;7.40;;
20179;SDS011;10249;48.900;9.090;2022-09-24T08:38:29;8.47;;;8.17;;
20179;SDS011;10249;48.900;9.090;2022-09-24T08:40:57;9.30;;;9.00;;
20179;SDS011;10249;48.900;9.090;2022-09-24T08:43:36;10.40;;;10.03;;
20179;SDS011;10249;48.900;9.090;2022-09-24T08:46:12;10.67;;;10.27;;
20179;SDS011;10249;48.900;9.090;2022-09-24T08:48:59;12.60;;;12.10;;
20179;SDS011;10249;48.900;9.090;2022-09-24T08:51:28;12.53;;;12.03;;
20179;SDS011;10249;48.900;9.090;2022-09-24T08:54:04;12.50;;;12.00;;
20179;SDS011;10249;48.900;9.090;2022-09-24T08:56:35;15.93;;;15.23;;
20179;SDS011;10249;48.900;9.090;2022-09-24T08:59:09;12.60;;;12.10;;
20179;SDS011;10249;48.900;9.090;2022-09-24T09:01:46;12.87;;;12.37;;
20179;SDS011;10249;48.900;9.090;2022-09-24T09:04:23;13.67;;;13.10;;
20179;SDS011;10249;48.900;9.090;2022-09-24T09:06:58;17.93;;;16.53;;
20179;SDS011;10249;48.900;9.090;2022-09-24T09:09:37;12.37;;;11.87;;
20179;SDS011;10249;48.900;9.090;2022-09-24T09:12:10;12.40;;;11.90;;
20179;SDS011;10249;48.900;9.090;2022-09-24T09:14:42;12.63;;;12.13;;
20179;SDS011;10249;48.900;9.090;2022-09-24T09:17:17;12.70;;;12.20;;
20179;SDS011;10249;48.900;9.090;2022-09-24T09:19:56;13.10;;;12.60;;
20179;SDS011;10249;48.900;9.090;2022-09-24T09:22:27;13.83;;;13.33;;
20179;SDS011;10249;48.900;9.090;2022-09-24T09:25:00;14.00;;;13.47;;
20179;SDS011;10249;48.900;9.090;2022-09-24T09:27:35;14.03;;;13.53;;
20179;SDS011;10249;48.900;9.090;2022-09-24T09:30:03;13.87;;;13.37;;
20179;SDS011;10249;48.900;9.090;2022-09-24T09:32:40;15.03;;;14.33;;
20179;SDS011;10249;48.900;9.090;2022-09-24T09:35:17;14.03;;;13.43;;
20179;SDS011;10249;48.900;9.090;2022-09-24T09:37:51;12.40;;;12.00;;
20179;SDS011;10249;48.900;9.090;2022-09-24T09:40:26;12.37;;;11.87;;
20179;SDS011;10249;48.900;9.090;2022-09-24T09:42:59;13.10;;;12.60;;
20179;SDS011;10249;48.900;9.090;2022-09-24T09:45:30;12.40;;;11.90;;
20179;SDS011;10249;48.900;9.090;2022-09-24T09:48:01;12.70;;;12.20;;
20179;SDS011;10249;48.900;9.090;2022-09-24T09:50:28;12.57;;;12.07;;
20179;SDS011;10249;48.900;9.090;2022-09-24T09:53:00;12.90;;;12.40;;
20179;SDS011;10249;48.900;9.090;2022-09-24T09:55:30;12.73;;;12.23;;
20179;SDS011;10249;48.900;9.090;2022-09-24T09:58:07;28.63;;;27.43;;
20179;SDS011;10249;48.900;9.090;2022-09-24T10:00:42;13.27;;;12.77;;
20179;SDS011;10249;48.900;9.090;2022-09-24T10:03:22;13.30;;;12.80;;
20179;SDS011;10249;48.900;9.090;2022-09-24T10:05:51;13.43;;;12.87;;
20179;SDS011;10249;48.900;9.090;2022-09-24T10:08:23;12.80;;;12.30;;
20179;SDS011;10249;48.900;9.090;2022-09-24T10:10:53;12.50;;;12.00;;
20179;SDS011;10249;48.900;9.090;2022-09-24T10:13:21;12.20;;;11.80;;
20179;SDS011;10249;48.900;9.090;2022-09-24T10:15:50;11.10;;;10.70;;
20179;SDS011;10249;48.900;9.090;2022-09-24T10:18:22;12.20;;;11.43;;
20179;SDS011;10249;48.900;9.090;2022-09-24T10:20:55;9.70;;;9.40;;
20179;SDS011;10249;48.900;9.090;2022-09-24T10:23:24;9.90;;;9.60;;
20179;SDS011;10249;48.900;9.090;2022-09-24T10:25:57;10.20;;;9.90;;
20179;SDS011;10249;48.900;9.090;2022-09-24T10:28:25;9.97;;;9.67;;
20179;SDS011;10249;48.900;9.090;2022-09-24T10:31:13;10.70;;;10.30;;
20179;SDS011;10249;48.900;9.090;2022-09-24T10:33:43;11.47;;;11.07;;
20179;SDS011;10249;48.900;9.090;2022-09-24T10:36:13;11.50;;;11.10;;
20179;SDS011;10249;48.900;9.090;2022-09-24T10:38:42;11.40;;;11.00;;
20179;SDS011;10249;48.900;9.090;2022-09-24T10:41:23;11.50;;;11.10;;
20179;SDS011;10249;48.900;9.090;2022-09-24T10:43:52;11.70;;;11.20;;
20179;SDS011;10249;48.900;9.090;2022-09-24T10:46:29;11.17;;;10.77;;
20179;SDS011;10249;48.900;9.090;2022-09-24T10:49:06;11.60;;;11.20;;
20179;SDS011;10249;48.900;9.090;2022-09-24T10:51:44;11.57;;;11.17;;
20179;SDS011;10249;48.900;9.090;2022-09-24T10:54:20;12.03;;;11.63;;
20179;SDS011;10249;48.900;9.090;2022-09-24T10:57:02;12.40;;;11.90;;
20179;SDS011;10249;48.900;9.090;2022-09-24T10:59:43;13.30;;;12.80;;
20179;SDS011;10249;48.900;9.090;2022-09-24T11:02:24;12.50;;;12.00;;
20179;SDS011;10249;48.900;9.090;2022-09-24T11:05:13;12.47;;;11.97;;
20179;SDS011;10249;48.900;9.090;2022-09-24T11:07:55;12.40;;;11.90;;
20179;SDS011;10249;48.900;9.090;2022-09-24T11:10:42;13.37;;;12.87;;
20179;SDS011;10249;48.900;9.090;2022-09-24T11:13:31;12.67;;;12.17;;
20179;SDS011;10249;48.900;9.090;2022-09-24T11:16:11;12.67;;;12.17;;
20179;SDS011;10249;48.900;9.090;2022-09-24T11:18:52;12.90;;;12.40;;
20179;SDS011;10249;48.900;9.090;2022-09-24T11:24:34;12.87;;;12.37;;
20179;SDS011;10249;48.900;9.090;2022-09-24T11:30:22;12.80;;;12.30;;
20179;SDS011;10249;48.900;9.090;2022-09-24T11:33:04;12.53;;;12.03;;
20179;SDS011;10249;48.900;9.090;2022-09-24T11:35:49;12.57;;;12.07;;
20179;SDS011;10249;48.900;9.090;2022-09-24T11:38:26;12.67;;;12.17;;
20179;SDS011;10249;48.900;9.090;2022-09-24T11:41:06;12.93;;;12.43;;
20179;SDS011;10249;48.900;9.090;2022-09-24T11:43:45;13.00;;;12.50;;
20179;SDS011;10249;48.900;9.090;2022-09-24T11:46:33;12.70;;;12.20;;
20179;SDS011;10249;48.900;9.090;2022-09-24T11:49:18;12.37;;;11.97;;
20179;SDS011;10249;48.900;9.090;2022-09-24T11:52:08;12.50;;;12.00;;
20179;SDS011;10249;48.900;9.090;2022-09-24T11:54:39;12.60;;;12.10;;
20179;SDS011;10249;48.900;9.090;2022-09-24T11:57:12;12.07;;;11.67;;
20179;SDS011;10249;48.900;9.090;2022-09-24T11:59:45;11.37;;;10.97;;
20179;SDS011;10249;48.900;9.090;2022-09-24T12:02:19;11.00;;;10.60;;
20179;SDS011;10249;48.900;9.090;2022-09-24T12:04:52;10.73;;;10.33;;
20179;SDS011;10249;48.900;9.090;2022-09-24T12:07:25;11.20;;;10.80;;
20179;SDS011;10249;48.900;9.090;2022-09-24T12:09:58;11.10;;;10.70;;
20179;SDS011;10249;48.900;9.090;2022-09-24T12:12:30;9.70;;;9.40;;
20179;SDS011;10249;48.900;9.090;2022-09-24T12:15:00;9.33;;;9.03;;
20179;SDS011;10249;48.900;9.090;2022-09-24T12:17:34;10.13;;;9.83;;
20179;SDS011;10249;48.900;9.090;2022-09-24T12:20:05;9.70;;;9.40;;
20179;SDS011;10249;48.900;9.090;2022-09-24T12:22:42;9.50;;;9.20;;
20179;SDS011;10249;48.900;9.090;2022-09-24T12:25:11;9.63;;;9.33;;
20179;SDS011;10249;48.900;9.090;2022-09-24T12:27:38;9.13;;;8.83;;
20179;SDS011;10249;48.900;9.090;2022-09-24T12:30:13;10.53;;;10.00;;
20179;SDS011;10249;48.900;9.090;2022-09-24T12:33:13;7.80;;;7.50;;
20179;SDS011;10249;48.900;9.090;2022-09-24T12:35:49;6.40;;;6.20;;
20179;SDS011;10249;48.900;9.090;2022-09-24T12:38:29;6.13;;;5.93;;
20179;SDS011;10249;48.900;9.090;2022-09-24T12:41:06;6.20;;;6.00;;
20179;SDS011;10249;48.900;9.090;2022-09-24T12:43:44;6.20;;;6.00;;
20179;SDS011;10249;48.900;9.090;2022-09-24T12:46:16;6.53;;;6.33;;
20179;SDS011;10249;48.900;9.090;2022-09-24T12:48:45;6.80;;;6.60;;
20179;SDS011;10249;48.900;9.090;2022-09-24T12:51:13;9.43;;;9.03;;
20179;SDS011;10249;48.900;9.090;2022-09-24T12:53:55;8.90;;;8.60;;
20179;SDS011;10249;48.900;9.090;2022-09-24T12:56:24;6.17;;;5.97;;
20179;SDS011;10249;48.900;9.090;2022-09-24T12:58:53;5.77;;;5.57;;
20179;SDS011;10249;48.900;9.090;2022-09-24T13:01:25;6.87;;;6.67;;
20179;SDS011;10249;48.900;9.090;2022-09-24T13:04:04;5.77;;;5.57;;
20179;SDS011;10249;48.900;9.090;2022-09-24T13:06:48;5.57;;;5.37;;
20179;SDS011;10249;48.900;9.090;2022-09-24T13:09:25;5.30;;;5.10;;
20179;SDS011;10249;48.900;9.090;2022-09-24T13:12:02;6.27;;;6.07;;
20179;SDS011;10249;48.900;9.090;2022-09-24T13:14:46;6.53;;;6.33;;
20179;SDS011;10249;48.900;9.090;2022-09-24T13:17:16;6.83;;;6.63;;
20179;SDS011;10249;48.900;9.090;2022-09-24T13:19:43;7.40;;;7.20;;
20179;SDS011;10249;48.900;9.090;2022-09-24T13:22:20;7.67;;;7.47;;
20179;SDS011;10249;48.900;9.090;2022-09-24T13:24:52;7.70;;;7.50;;
20179;SDS011;10249;48.900;9.090;2022-09-24T13:27:35;8.00;;;7.80;;
20179;SDS011;10249;48.900;9.090;2022-09-24T13:30:11;8.10;;;7.90;;
20179;SDS011;10249;48.900;9.090;2022-09-24T13:32:43;8.50;;;8.20;;
20179;SDS011;10249;48.900;9.090;2022-09-24T13:35:16;8.70;;;8.40;;
20179;SDS011;10249;48.900;9.090;2022-09-24T13:37:48;8.70;;;8.40;;
20179;SDS011;10249;48.900;9.090;2022-09-24T13:40:23;8.80;;;8.50;;
20179;SDS011;10249;48.900;9.090;2022-09-24T13:42:54;9.03;;;8.73;;
20179;SDS011;10249;48.900;9.090;2022-09-24T13:45:25;8.80;;;8.50;;
20179;SDS011;10249;48.900;9.090;2022-09-24T13:47:53;8.80;;;8.50;;
20179;SDS011;10249;48.900;9.090;2022-09-24T13:50:23;8.93;;;8.63;;
20179;SDS011;10249;48.900;9.090;2022-09-24T13:52:53;9.20;;;8.90;;
20179;SDS011;10249;48.900;9.090;2022-09-24T13:55:25;10.20;;;9.70;;
20179;SDS011;10249;48.900;9.090;2022-09-24T13:57:56;9.10;;;8.80;;
20179;SDS011;10249;48.900;9.090;2022-09-24T14:00:23;9.20;;;8.90;;
20179;SDS011;10249;48.900;9.090;2022-09-24T14:02:53;9.20;;;8.90;;
20179;SDS011;10249;48.900;9.090;2022-09-24T14:05:22;9.53;;;9.23;;
20179;SDS011;10249;48.900;9.090;2022-09-24T14:07:51;9.53;;;9.23;;
20179;SDS011;10249;48.900;9.090;2022-09-24T14:10:20;10.30;;;10.00;;
20179;SDS011;10249;48.900;9.090;2022-09-24T14:12:58;10.10;;;9.80;;
20179;SDS011;10249;48.900;9.090;2022-09-24T14:15:35;9.90;;;9.60;;
20179;SDS011;10249;48.900;9.090;2022-09-24T14:18:02;10.63;;;10.23;;
20179;SDS011;10249;48.900;9.090;2022-09-24T14:20:29;9.93;;;9.63;;
20179;SDS011;10249;48.900;9.090;2022-09-24T14:22:59;9.83;;;9.53;;
20179;SDS011;10249;48.900;9.090;2022-09-24T14:25:28;9.70;;;9.40;;
20179;SDS011;10249;48.900;9.090;2022-09-24T14:28:00;10.13;;;9.83;;
20179;SDS011;10249;48.900;9.090;2022-09-24T14:30:30;10.20;;;9.90;;
20179;SDS011;10249;48.900;9.090;2022-09-24T14:32:58;9.80;;;9.50;;
20179;SDS011;10249;48.900;9.090;2022-09-24T14:35:28;9.60;;;9.30;;
20179;SDS011;10249;48.900;9.090;2022-09-24T14:37:58;9.30;;;9.00;;
20179;SDS011;10249;48.900;9.090;2022-09-24T14:40:28;9.20;;;8.90;;
20179;SDS011;10249;48.900;9.090;2022-09-24T14:42:56;9.10;;;8.80;;
20179;SDS011;10249;48.900;9.090;2022-09-24T14:45:28;9.30;;;9.00;;
20179;SDS011;10249;48.900;9.090;2022-09-24T14:48:00;9.30;;;9.00;;
20179;SDS011;10249;48.900;9.090;2022-09-24T14:50:31;8.63;;;8.33;;
20179;SDS011;10249;48.900;9.090;2022-09-24T14:53:10;9.40;;;9.10;;
20179;SDS011;10249;48.900;9.090;2022-09-24T14:55:39;9.40;;;9.10;;
20179;SDS011;10249;48.900;9.090;2022-09-24T14:58:20;9.40;;;9.10;;
20179;SDS011;10249;48.900;9.090;2022-09-24T15:00:50;8.47;;;8.17;;
20179;SDS011;10249;48.900;9.090;2022-09-24T15:03:21;8.90;;;8.60;;
20179;SDS011;10249;48.900;9.090;2022-09-24T15:06:00;9.47;;;9.17;;
20179;SDS011;10249;48.900;9.090;2022-09-24T15:08:29;9.70;;;9.40;;